sensor_id;sensor_type;location;lat;lon;timestamp;pressure;altitude;pressure_sealevel;temperature;humidity
71795;BME280;59641;45.188;5.712;2023-08-30T00:01:47;98637.63;;;20.46;48.36
71795;BME280;59641;45.188;5.712;2023-08-30T00:04:12;98635.22;;;20.45;47.98
71795;BME280;59641;45.188;5.712;2023-08-30T00:06:38;98633.28;;;20.45;48.23
71795;BME280;59641;45.188;5.712;2023-08-30T00:09:03;98630.84;;;20.43;48.18
71795;BME280;59641;45.188;5.712;2023-08-30T00:11:28;98639.03;;;20.43;48.19
71795;BME280;59641;45.188;5.712;2023-08-30T00:14:03;98634.38;;;20.44;48.16
71795;BME280;59641;45.188;5.712;2023-08-30T00:16:29;98631.97;;;20.42;48.42
71795;BME280;59641;45.188;5.712;2023-08-30T00:18:55;98633.41;;;20.40;48.25
71795;BME280;59641;45.188;5.712;2023-08-30T00:21:20;98633.69;;;20.38;48.46
71795;BME280;59641;45.188;5.712;2023-08-30T00:23:46;98639.94;;;20.39;48.42
71795;BME280;59641;45.188;5.712;2023-08-30T00:26:11;98641.84;;;20.38;48.25
71795;BME280;59641;45.188;5.712;2023-08-30T00:28:36;98641.06;;;20.38;48.41
71795;BME280;59641;45.188;5.712;2023-08-30T00:31:02;98635.91;;;20.36;48.50
71795;BME280;59641;45.188;5.712;2023-08-30T00:33:27;98645.69;;;20.37;48.36
71795;BME280;59641;45.188;5.712;2023-08-30T00:35:58;98637.53;;;20.37;48.10
71795;BME280;59641;45.188;5.712;2023-08-30T00:38:26;98631.56;;;20.35;48.38
71795;BME280;59641;45.188;5.712;2023-08-30T00:40:51;98625.41;;;20.30;48.43
71795;BME280;59641;45.188;5.712;2023-08-30T00:43:18;98623.97;;;20.32;48.45
71795;BME280;59641;45.188;5.712;2023-08-30T00:45:43;98619.38;;;20.33;48.28
71795;BME280;59641;45.188;5.712;2023-08-30T00:48:09;98622.09;;;20.33;48.01
71795;BME280;59641;45.188;5.712;2023-08-30T00:50:35;98631.06;;;20.33;48.38
71795;BME280;59641;45.188;5.712;2023-08-30T00:53:02;98622.88;;;20.33;48.05
71795;BME280;59641;45.188;5.712;2023-08-30T00:55:31;98623.97;;;20.32;48.45
71795;BME280;59641;45.188;5.712;2023-08-30T00:57:58;98623.97;;;20.32;48.53
71795;BME280;59641;45.188;5.712;2023-08-30T01:00:24;98621.56;;;20.31;48.20
71795;BME280;59641;45.188;5.712;2023-08-30T01:02:49;98625.09;;;20.31;48.40
71795;BME280;59641;45.188;5.712;2023-08-30T01:05:15;98611.78;;;20.30;48.50
71795;BME280;59641;45.188;5.712;2023-08-30T01:07:41;98614.81;;;20.28;48.60
71795;BME280;59641;45.188;5.712;2023-08-30T01:10:07;98615.09;;;20.27;48.14
71795;BME280;59641;45.188;5.712;2023-08-30T01:12:49;98610.47;;;20.27;48.69
71795;BME280;59641;45.188;5.712;2023-08-30T01:15:19;98612.69;;;20.25;48.69
71795;BME280;59641;45.188;5.712;2023-08-30T01:17:51;98609.16;;;20.25;48.41
71795;BME280;59641;45.188;5.712;2023-08-30T01:20:18;98606.75;;;20.23;48.70
71795;BME280;59641;45.188;5.712;2023-08-30T01:28:04;98597.56;;;20.19;48.49
71795;BME280;59641;45.188;5.712;2023-08-30T01:30:32;98605.81;;;20.14;48.56
71795;BME280;59641;45.188;5.712;2023-08-30T01:33:00;98601.78;;;20.11;48.93
71795;BME280;59641;45.188;5.712;2023-08-30T01:35:26;98604.28;;;20.08;48.82
71795;BME280;59641;45.188;5.712;2023-08-30T01:37:56;98598.34;;;20.06;48.90
71795;BME280;59641;45.188;5.712;2023-08-30T01:40:22;98601.38;;;20.04;48.96
71795;BME280;59641;45.188;5.712;2023-08-30T01:42:48;98592.41;;;20.04;48.99
71795;BME280;59641;45.188;5.712;2023-08-30T01:45:14;98597.03;;;20.03;49.27
71795;BME280;59641;45.188;5.712;2023-08-30T01:47:43;98591.91;;;20.02;49.19
71795;BME280;59641;45.188;5.712;2023-08-30T01:50:11;98602.28;;;19.99;49.33
71795;BME280;59641;45.188;5.712;2023-08-30T01:52:38;98601.78;;;19.97;49.58
71795;BME280;59641;45.188;5.712;2023-08-30T01:55:04;98600.97;;;19.97;49.27
71795;BME280;59641;45.188;5.712;2023-08-30T01:57:31;98599.34;;;19.96;49.52
71795;BME280;59641;45.188;5.712;2023-08-30T01:59:56;98602.38;;;19.94;49.42
71795;BME280;59641;45.188;5.712;2023-08-30T02:02:21;98598.03;;;19.93;49.15
71795;BME280;59641;45.188;5.712;2023-08-30T02:04:47;98604.06;;;19.90;49.55
71795;BME280;59641;45.188;5.712;2023-08-30T02:07:24;98605.47;;;19.88;49.27
71795;BME280;59641;45.188;5.712;2023-08-30T02:09:58;98602.53;;;19.84;49.68
71795;BME280;59641;45.188;5.712;2023-08-30T02:12:24;98593.66;;;19.78;49.31
71795;BME280;59641;45.188;5.712;2023-08-30T02:14:52;98601.13;;;19.73;49.42
71795;BME280;59641;45.188;5.712;2023-08-30T02:17:19;98598.97;;;19.70;49.27
71795;BME280;59641;45.188;5.712;2023-08-30T02:19:45;98598.50;;;19.68;49.70
71795;BME280;59641;45.188;5.712;2023-08-30T02:22:11;98599.53;;;19.67;49.56
71795;BME280;59641;45.188;5.712;2023-08-30T02:24:37;98597.63;;;19.67;49.86
71795;BME280;59641;45.188;5.712;2023-08-30T02:27:02;98598.75;;;19.66;49.62
71795;BME280;59641;45.188;5.712;2023-08-30T02:29:28;98601.47;;;19.66;49.74
71795;BME280;59641;45.188;5.712;2023-08-30T02:31:53;98594.91;;;19.67;49.67
71795;BME280;59641;45.188;5.712;2023-08-30T02:34:18;98589.78;;;19.66;49.40
71795;BME280;59641;45.188;5.712;2023-08-30T02:36:44;98596.31;;;19.65;49.63
71795;BME280;59641;45.188;5.712;2023-08-30T02:39:10;98595.50;;;19.64;49.72
71795;BME280;59641;45.188;5.712;2023-08-30T02:41:36;98604.00;;;19.63;49.30
71795;BME280;59641;45.188;5.712;2023-08-30T02:44:02;98608.09;;;19.60;49.66
71795;BME280;59641;45.188;5.712;2023-08-30T02:46:28;98600.75;;;19.61;49.61
71795;BME280;59641;45.188;5.712;2023-08-30T02:48:53;98598.84;;;19.61;49.87
71795;BME280;59641;45.188;5.712;2023-08-30T02:51:20;98602.34;;;19.62;49.57
71795;BME280;59641;45.188;5.712;2023-08-30T02:53:45;98605.38;;;19.60;49.52
71795;BME280;59641;45.188;5.712;2023-08-30T02:56:11;98601.72;;;19.51;49.79
71795;BME280;59641;45.188;5.712;2023-08-30T02:58:36;98607.47;;;19.49;49.66
71795;BME280;59641;45.188;5.712;2023-08-30T03:01:01;98608.25;;;19.50;49.77
71795;BME280;59641;45.188;5.712;2023-08-30T03:03:27;98606.66;;;19.49;49.82
71795;BME280;59641;45.188;5.712;2023-08-30T03:05:53;98614.03;;;19.48;49.55
71795;BME280;59641;45.188;5.712;2023-08-30T03:08:18;98607.53;;;19.44;49.69
71795;BME280;59641;45.188;5.712;2023-08-30T03:10:44;98607.84;;;19.43;49.42
71795;BME280;59641;45.188;5.712;2023-08-30T03:13:09;98607.31;;;19.41;49.93
71795;BME280;59641;45.188;5.712;2023-08-30T03:15:35;98606.22;;;19.42;49.64
71795;BME280;59641;45.188;5.712;2023-08-30T03:18:00;98607.84;;;19.43;49.84
71795;BME280;59641;45.188;5.712;2023-08-30T03:20:26;98605.44;;;19.41;49.91
71795;BME280;59641;45.188;5.712;2023-08-30T03:22:55;98600.00;;;19.41;50.03
71795;BME280;59641;45.188;5.712;2023-08-30T03:25:20;98600.78;;;19.42;49.75
71795;BME280;59641;45.188;5.712;2023-08-30T03:27:46;98604.59;;;19.41;50.00
71795;BME280;59641;45.188;5.712;2023-08-30T03:30:11;98603.28;;;19.38;49.93
71795;BME280;59641;45.188;5.712;2023-08-30T03:32:37;98601.97;;;19.35;49.94
71795;BME280;59641;45.188;5.712;2023-08-30T03:35:03;98605.00;;;19.34;50.21
71795;BME280;59641;45.188;5.712;2023-08-30T03:37:28;98611.22;;;19.34;50.27
71795;BME280;59641;45.188;5.712;2023-08-30T03:39:54;98606.88;;;19.33;50.36
71795;BME280;59641;45.188;5.712;2023-08-30T03:42:19;98610.13;;;19.35;50.28
71795;BME280;59641;45.188;5.712;2023-08-30T03:44:44;98610.72;;;19.32;50.17
71795;BME280;59641;45.188;5.712;2023-08-30T03:47:10;98621.09;;;19.30;50.21
71795;BME280;59641;45.188;5.712;2023-08-30T03:49:35;98614.03;;;19.29;50.01
71795;BME280;59641;45.188;5.712;2023-08-30T03:52:00;98621.38;;;19.29;50.38
71795;BME280;59641;45.188;5.712;2023-08-30T03:54:26;98617.84;;;19.28;50.47
71795;BME280;59641;45.188;5.712;2023-08-30T03:56:51;98622.19;;;19.29;50.44
71795;BME280;59641;45.188;5.712;2023-08-30T03:59:16;98620.56;;;19.28;50.66
71795;BME280;59641;45.188;5.712;2023-08-30T04:01:42;98625.19;;;19.28;50.60
71795;BME280;59641;45.188;5.712;2023-08-30T04:04:07;98631.44;;;19.28;50.52
71795;BME280;59641;45.188;5.712;2023-08-30T04:06:33;98623.28;;;19.28;50.84
71795;BME280;59641;45.188;5.712;2023-08-30T04:08:58;98623.59;;;19.27;50.66
71795;BME280;59641;45.188;5.712;2023-08-30T04:11:23;98636.69;;;19.25;50.71
71795;BME280;59641;45.188;5.712;2023-08-30T04:13:49;98631.81;;;19.22;50.71
71795;BME280;59641;45.188;5.712;2023-08-30T04:16:14;98625.88;;;19.20;51.00
71795;BME280;59641;45.188;5.712;2023-08-30T04:18:39;98627.47;;;19.21;50.89
71795;BME280;59641;45.188;5.712;2023-08-30T04:21:05;98626.69;;;19.20;51.11
71795;BME280;59641;45.188;5.712;2023-08-30T04:23:32;98637.31;;;19.16;50.69
71795;BME280;59641;45.188;5.712;2023-08-30T04:25:58;98639.84;;;19.13;50.90
71795;BME280;59641;45.188;5.712;2023-08-30T04:28:23;98641.50;;;19.09;51.02
71795;BME280;59641;45.188;5.712;2023-08-30T04:30:48;98645.91;;;19.05;51.44
71795;BME280;59641;45.188;5.712;2023-08-30T04:33:14;98639.16;;;19.02;51.13
71795;BME280;59641;45.188;5.712;2023-08-30T04:35:39;98653.06;;;19.01;51.23
71795;BME280;59641;45.188;5.712;2023-08-30T04:38:05;98646.59;;;18.97;50.84
71795;BME280;59641;45.188;5.712;2023-08-30T04:40:31;98648.78;;;18.94;51.39
71795;BME280;59641;45.188;5.712;2023-08-30T04:43:00;98654.22;;;18.94;51.30
71795;BME280;59641;45.188;5.712;2023-08-30T04:45:25;98653.41;;;18.94;51.39
71795;BME280;59641;45.188;5.712;2023-08-30T04:47:50;98651.50;;;18.94;51.08
71795;BME280;59641;45.188;5.712;2023-08-30T04:50:16;98649.09;;;18.93;51.04
71795;BME280;59641;45.188;5.712;2023-08-30T04:52:42;98645.25;;;18.94;51.05
71795;BME280;59641;45.188;5.712;2023-08-30T04:55:08;98650.69;;;18.94;51.25
71795;BME280;59641;45.188;5.712;2023-08-30T04:57:33;98654.22;;;18.94;51.40
71795;BME280;59641;45.188;5.712;2023-08-30T04:59:59;98655.03;;;18.95;51.26
71795;BME280;59641;45.188;5.712;2023-08-30T05:02:25;98649.59;;;18.95;51.32
71795;BME280;59641;45.188;5.712;2023-08-30T05:04:51;98649.91;;;18.93;51.19
71795;BME280;59641;45.188;5.712;2023-08-30T05:07:16;98652.59;;;18.93;51.18
71795;BME280;59641;45.188;5.712;2023-08-30T05:09:42;98655.31;;;18.93;51.50
71795;BME280;59641;45.188;5.712;2023-08-30T05:12:07;98656.41;;;18.92;51.60
71795;BME280;59641;45.188;5.712;2023-08-30T05:14:33;98657.81;;;18.90;51.32
71795;BME280;59641;45.188;5.712;2023-08-30T05:16:58;98656.41;;;18.92;51.29
71795;BME280;59641;45.188;5.712;2023-08-30T05:19:23;98656.41;;;18.92;51.42
71795;BME280;59641;45.188;5.712;2023-08-30T05:21:49;98650.97;;;18.92;51.55
71795;BME280;59641;45.188;5.712;2023-08-30T05:24:20;98656.13;;;18.94;51.79
71795;BME280;59641;45.188;5.712;2023-08-30T05:26:45;98657.25;;;18.93;51.50
71795;BME280;59641;45.188;5.712;2023-08-30T05:29:12;98660.75;;;18.93;51.60
71795;BME280;59641;45.188;5.712;2023-08-30T05:31:38;98657.53;;;18.91;51.52
71795;BME280;59641;45.188;5.712;2023-08-30T05:34:03;98657.53;;;18.91;51.69
71795;BME280;59641;45.188;5.712;2023-08-30T05:36:29;98659.44;;;18.91;51.88
71795;BME280;59641;45.188;5.712;2023-08-30T05:38:54;98664.88;;;18.91;51.56
71795;BME280;59641;45.188;5.712;2023-08-30T05:41:19;98660.53;;;18.90;51.94
71795;BME280;59641;45.188;5.712;2023-08-30T05:43:44;98662.16;;;18.91;51.89
71795;BME280;59641;45.188;5.712;2023-08-30T05:46:10;98660.75;;;18.93;52.25
71795;BME280;59641;45.188;5.712;2023-08-30T05:48:39;98662.88;;;18.97;52.13
71795;BME280;59641;45.188;5.712;2023-08-30T05:51:05;98666.13;;;18.99;52.43
71795;BME280;59641;45.188;5.712;2023-08-30T05:53:30;98662.03;;;19.01;51.95
71795;BME280;59641;45.188;5.712;2023-08-30T05:55:55;98668.50;;;19.05;52.08
71795;BME280;59641;45.188;5.712;2023-08-30T05:58:21;98666.31;;;19.07;51.58
71795;BME280;59641;45.188;5.712;2023-08-30T06:00:46;98663.59;;;19.07;51.80
71795;BME280;59641;45.188;5.712;2023-08-30T06:03:11;98668.72;;;19.09;51.94
71795;BME280;59641;45.188;5.712;2023-08-30T06:05:37;98681.22;;;19.10;51.89
71795;BME280;59641;45.188;5.712;2023-08-30T06:08:02;98683.63;;;19.11;51.68
71795;BME280;59641;45.188;5.712;2023-08-30T06:10:28;98682.81;;;19.11;51.67
71795;BME280;59641;45.188;5.712;2023-08-30T06:12:53;98686.34;;;19.11;51.61
71795;BME280;59641;45.188;5.712;2023-08-30T06:15:18;98684.44;;;19.12;51.74
71795;BME280;59641;45.188;5.712;2023-08-30T06:17:44;98686.34;;;19.11;51.54
71795;BME280;59641;45.188;5.712;2023-08-30T06:20:11;98692.91;;;19.10;51.75
71795;BME280;59641;45.188;5.712;2023-08-30T06:22:37;98687.47;;;19.10;51.71
71795;BME280;59641;45.188;5.712;2023-08-30T06:25:02;98693.69;;;19.11;51.77
71795;BME280;59641;45.188;5.712;2023-08-30T06:27:29;98693.50;;;19.07;51.43
71795;BME280;59641;45.188;5.712;2023-08-30T06:29:55;98696.22;;;19.07;51.61
71795;BME280;59641;45.188;5.712;2023-08-30T06:32:20;98701.34;;;19.09;51.70
71795;BME280;59641;45.188;5.712;2023-08-30T06:34:45;98702.97;;;19.10;51.49
71795;BME280;59641;45.188;5.712;2023-08-30T06:37:11;98704.84;;;19.09;51.51
71795;BME280;59641;45.188;5.712;2023-08-30T06:39:36;98704.94;;;19.04;51.57
71795;BME280;59641;45.188;5.712;2023-08-30T06:42:03;98702.00;;;19.01;51.74
71795;BME280;59641;45.188;5.712;2023-08-30T06:44:28;98706.09;;;18.98;51.47
71795;BME280;59641;45.188;5.712;2023-08-30T06:46:57;98697.44;;;18.96;51.50
71795;BME280;59641;45.188;5.712;2023-08-30T06:49:23;98703.16;;;18.94;51.88
71795;BME280;59641;45.188;5.712;2023-08-30T06:51:49;98706.19;;;18.93;51.83
71795;BME280;59641;45.188;5.712;2023-08-30T06:54:14;98716.47;;;18.96;52.10
71795;BME280;59641;45.188;5.712;2023-08-30T06:56:39;98707.19;;;18.97;51.96
71795;BME280;59641;45.188;5.712;2023-08-30T06:59:05;98711.25;;;19.00;51.88
71795;BME280;59641;45.188;5.712;2023-08-30T07:01:30;98718.84;;;19.03;52.29
71795;BME280;59641;45.188;5.712;2023-08-30T07:03:56;98710.09;;;19.06;51.88
71795;BME280;59641;45.188;5.712;2023-08-30T07:06:21;98705.44;;;19.06;51.65
71795;BME280;59641;45.188;5.712;2023-08-30T07:08:46;98696.78;;;19.04;51.37
71795;BME280;59641;45.188;5.712;2023-08-30T07:11:12;98704.19;;;18.99;51.89
71795;BME280;59641;45.188;5.712;2023-08-30T07:13:37;98701.47;;;18.99;52.22
71795;BME280;59641;45.188;5.712;2023-08-30T07:16:02;98706.63;;;19.00;51.95
71795;BME280;59641;45.188;5.712;2023-08-30T07:18:29;98694.66;;;19.01;52.10
71795;BME280;59641;45.188;5.712;2023-08-30T07:20:54;98701.94;;;19.06;51.86
71795;BME280;59641;45.188;5.712;2023-08-30T07:23:19;98700.53;;;19.08;52.09
71795;BME280;59641;45.188;5.712;2023-08-30T07:25:45;98701.06;;;19.10;51.88
71795;BME280;59641;45.188;5.712;2023-08-30T07:28:10;98695.81;;;19.14;51.93
71795;BME280;59641;45.188;5.712;2023-08-30T07:30:36;98699.88;;;19.16;51.67
71795;BME280;59641;45.188;5.712;2023-08-30T07:33:03;98698.78;;;19.18;52.11
71795;BME280;59641;45.188;5.712;2023-08-30T07:35:29;98691.94;;;19.20;51.83
71795;BME280;59641;45.188;5.712;2023-08-30T07:37:55;98699.25;;;19.25;51.71
71795;BME280;59641;45.188;5.712;2023-08-30T07:40:20;98699.16;;;19.30;51.54
71795;BME280;59641;45.188;5.712;2023-08-30T07:42:49;98702.09;;;19.33;52.06
71795;BME280;59641;45.188;5.712;2023-08-30T07:45:14;98697.69;;;19.37;52.03
71795;BME280;59641;45.188;5.712;2023-08-30T07:47:40;98698.41;;;19.43;51.44
71795;BME280;59641;45.188;5.712;2023-08-30T07:50:06;98694.09;;;19.42;51.67
71795;BME280;59641;45.188;5.712;2023-08-30T07:52:32;98696.28;;;19.40;51.35
71795;BME280;59641;45.188;5.712;2023-08-30T07:54:58;98695.25;;;19.36;51.29
71795;BME280;59641;45.188;5.712;2023-08-30T07:57:23;98702.91;;;19.34;51.47
71795;BME280;59641;45.188;5.712;2023-08-30T07:59:48;98696.38;;;19.35;51.99
71795;BME280;59641;45.188;5.712;2023-08-30T08:02:14;98699.00;;;19.40;51.87
71795;BME280;59641;45.188;5.712;2023-08-30T08:04:39;98693.81;;;19.44;51.71
71795;BME280;59641;45.188;5.712;2023-08-30T08:07:04;98699.72;;;19.46;51.65
71795;BME280;59641;45.188;5.712;2023-08-30T08:09:30;98698.13;;;19.45;51.34
71795;BME280;59641;45.188;5.712;2023-08-30T08:11:55;98695.94;;;19.47;51.75
71795;BME280;59641;45.188;5.712;2023-08-30T08:14:22;98705.50;;;19.44;51.67
71795;BME280;59641;45.188;5.712;2023-08-30T08:16:48;98700.84;;;19.45;51.72
71795;BME280;59641;45.188;5.712;2023-08-30T08:19:13;98702.97;;;19.48;52.04
71795;BME280;59641;45.188;5.712;2023-08-30T08:21:39;98703.72;;;19.53;51.73
71795;BME280;59641;45.188;5.712;2023-08-30T08:24:04;98706.66;;;19.57;51.48
71795;BME280;59641;45.188;5.712;2023-08-30T08:26:29;98699.28;;;19.57;51.63
71795;BME280;59641;45.188;5.712;2023-08-30T08:28:56;98707.41;;;19.63;51.67
71795;BME280;59641;45.188;5.712;2023-08-30T08:31:22;98701.97;;;19.63;51.15
71795;BME280;59641;45.188;5.712;2023-08-30T08:33:51;98704.69;;;19.63;51.32
71795;BME280;59641;45.188;5.712;2023-08-30T08:36:29;98698.72;;;19.61;51.16
71795;BME280;59641;45.188;5.712;2023-08-30T08:38:55;98703.34;;;19.60;51.58
71795;BME280;59641;45.188;5.712;2023-08-30T08:41:20;98697.09;;;19.59;51.57
71795;BME280;59641;45.188;5.712;2023-08-30T08:43:47;98706.81;;;19.66;51.65
71795;BME280;59641;45.188;5.712;2023-08-30T08:46:13;98704.63;;;19.68;51.53
71795;BME280;59641;45.188;5.712;2023-08-30T08:48:41;98696.38;;;19.73;51.44
71795;BME280;59641;45.188;5.712;2023-08-30T08:51:08;98694.19;;;19.75;51.49
71795;BME280;59641;45.188;5.712;2023-08-30T08:53:35;98702.63;;;19.73;51.24
71795;BME280;59641;45.188;5.712;2023-08-30T08:56:01;98692.03;;;19.72;51.56
71795;BME280;59641;45.188;5.712;2023-08-30T08:58:27;98698.00;;;19.74;51.41
71795;BME280;59641;45.188;5.712;2023-08-30T09:00:53;98701.81;;;19.73;51.22
71795;BME280;59641;45.188;5.712;2023-08-30T09:03:20;98695.50;;;19.77;51.64
71795;BME280;59641;45.188;5.712;2023-08-30T09:05:46;98700.34;;;19.81;51.57
71795;BME280;59641;45.188;5.712;2023-08-30T09:08:12;98689.06;;;19.87;51.51
71795;BME280;59641;45.188;5.712;2023-08-30T09:10:38;98688.66;;;19.94;51.57
71795;BME280;59641;45.188;5.712;2023-08-30T09:13:04;98689.41;;;19.99;51.50
71795;BME280;59641;45.188;5.712;2023-08-30T09:15:33;98678.44;;;20.05;51.28
71795;BME280;59641;45.188;5.712;2023-08-30T09:17:58;98683.19;;;20.13;51.39
71795;BME280;59641;45.188;5.712;2023-08-30T09:20:24;98680.69;;;20.16;51.08
71795;BME280;59641;45.188;5.712;2023-08-30T09:22:49;98681.38;;;20.22;51.06
71795;BME280;59641;45.188;5.712;2023-08-30T09:25:26;98685.94;;;20.27;50.82
71795;BME280;59641;45.188;5.712;2023-08-30T09:27:59;98687.75;;;20.31;50.90
71795;BME280;59641;45.188;5.712;2023-08-30T09:30:24;98689.06;;;20.34;50.46
71795;BME280;59641;45.188;5.712;2023-08-30T09:32:50;98675.97;;;20.36;50.59
71795;BME280;59641;45.188;5.712;2023-08-30T09:35:15;98676.16;;;20.39;50.61
71795;BME280;59641;45.188;5.712;2023-08-30T09:37:44;98679.09;;;20.43;50.64
71795;BME280;59641;45.188;5.712;2023-08-30T09:40:10;98678.19;;;20.48;50.08
71795;BME280;59641;45.188;5.712;2023-08-30T09:42:40;98666.06;;;20.54;50.19
71795;BME280;59641;45.188;5.712;2023-08-30T09:45:17;98670.38;;;20.60;50.23
71795;BME280;59641;45.188;5.712;2023-08-30T09:47:46;98660.97;;;20.66;50.40
71795;BME280;59641;45.188;5.712;2023-08-30T09:50:12;98658.94;;;20.72;50.08
71795;BME280;59641;45.188;5.712;2023-08-30T09:52:42;98657.72;;;20.78;49.64
71795;BME280;59641;45.188;5.712;2023-08-30T09:55:08;98653.28;;;20.82;49.75
71795;BME280;59641;45.188;5.712;2023-08-30T09:57:35;98649.66;;;20.87;49.37
71795;BME280;59641;45.188;5.712;2023-08-30T10:00:01;98647.13;;;20.90;49.26
71795;BME280;59641;45.188;5.712;2023-08-30T10:02:29;98649.75;;;20.95;49.35
71795;BME280;59641;45.188;5.712;2023-08-30T10:04:56;98639.34;;;20.97;48.92
71795;BME280;59641;45.188;5.712;2023-08-30T10:07:23;98643.38;;;21.00;48.97
71795;BME280;59641;45.188;5.712;2023-08-30T10:09:50;98637.31;;;21.03;49.16
71795;BME280;59641;45.188;5.712;2023-08-30T10:12:20;98634.47;;;21.08;49.01
71795;BME280;59641;45.188;5.712;2023-08-30T10:14:45;98626.94;;;21.14;48.96
71795;BME280;59641;45.188;5.712;2023-08-30T10:17:12;98625.75;;;21.20;48.85
71795;BME280;59641;45.188;5.712;2023-08-30T10:19:39;98625.91;;;21.23;48.42
71795;BME280;59641;45.188;5.712;2023-08-30T10:22:06;98626.63;;;21.29;48.00
71795;BME280;59641;45.188;5.712;2023-08-30T10:25:03;98617.50;;;21.34;48.38
71795;BME280;59641;45.188;5.712;2023-08-30T10:27:31;98622.03;;;21.38;48.28
71795;BME280;59641;45.188;5.712;2023-08-30T10:29:59;98614.06;;;21.42;48.40
71795;BME280;59641;45.188;5.712;2023-08-30T10:32:26;98601.91;;;21.48;48.16
71795;BME280;59641;45.188;5.712;2023-08-30T10:34:52;98603.41;;;21.54;48.11
71795;BME280;59641;45.188;5.712;2023-08-30T10:37:25;98598.81;;;21.63;48.15
71795;BME280;59641;45.188;5.712;2023-08-30T10:39:52;98595.94;;;21.68;48.20
71795;BME280;59641;45.188;5.712;2023-08-30T10:42:22;98602.25;;;21.78;48.35
71795;BME280;59641;45.188;5.712;2023-08-30T10:45:07;98603.94;;;21.87;48.18
71795;BME280;59641;45.188;5.712;2023-08-30T10:47:36;98599.63;;;21.95;47.97
71795;BME280;59641;45.188;5.712;2023-08-30T10:50:12;98587.13;;;22.03;48.10
71795;BME280;59641;45.188;5.712;2023-08-30T10:52:38;98588.78;;;22.12;47.89
71795;BME280;59641;45.188;5.712;2023-08-30T10:55:11;98585.31;;;22.21;47.49
71795;BME280;59641;45.188;5.712;2023-08-30T10:57:40;98581.00;;;22.28;47.41
71795;BME280;59641;45.188;5.712;2023-08-30T11:00:18;98587.94;;;22.35;46.88
71795;BME280;59641;45.188;5.712;2023-08-30T11:02:45;98579.41;;;22.36;47.25
71795;BME280;59641;45.188;5.712;2023-08-30T11:05:15;98579.25;;;22.41;47.01
71795;BME280;59641;45.188;5.712;2023-08-30T11:07:43;98576.38;;;22.46;46.57
71795;BME280;59641;45.188;5.712;2023-08-30T11:10:08;98574.63;;;22.50;46.16
71795;BME280;59641;45.188;5.712;2023-08-30T11:12:34;98573.03;;;22.58;46.46
71795;BME280;59641;45.188;5.712;2023-08-30T11:15:01;98574.50;;;22.64;46.28
71795;BME280;59641;45.188;5.712;2023-08-30T11:17:27;98575.94;;;22.70;46.14
71795;BME280;59641;45.188;5.712;2023-08-30T11:20:25;98565.22;;;22.83;45.88
71795;BME280;59641;45.188;5.712;2023-08-30T11:22:51;98564.72;;;22.89;46.20
71795;BME280;59641;45.188;5.712;2023-08-30T11:25:18;98576.69;;;23.02;45.81
71795;BME280;59641;45.188;5.712;2023-08-30T11:27:44;98577.47;;;23.11;44.81
71795;BME280;59641;45.188;5.712;2023-08-30T11:30:11;98575.88;;;23.19;44.74
71795;BME280;59641;45.188;5.712;2023-08-30T11:32:41;98565.72;;;23.28;44.92
71795;BME280;59641;45.188;5.712;2023-08-30T11:35:09;98571.19;;;23.37;44.40
71795;BME280;59641;45.188;5.712;2023-08-30T11:37:35;98575.53;;;23.47;44.36
71795;BME280;59641;45.188;5.712;2023-08-30T11:40:04;98564.22;;;23.57;44.20
71795;BME280;59641;45.188;5.712;2023-08-30T11:42:31;98568.22;;;23.68;44.16
71795;BME280;59641;45.188;5.712;2023-08-30T11:44:58;98576.94;;;23.79;44.16
71795;BME280;59641;45.188;5.712;2023-08-30T11:47:25;98580.59;;;23.92;43.34
71795;BME280;59641;45.188;5.712;2023-08-30T11:49:55;98578.47;;;23.97;43.52
71795;BME280;59641;45.188;5.712;2023-08-30T11:52:22;98586.22;;;24.04;43.19
71795;BME280;59641;45.188;5.712;2023-08-30T11:54:49;98586.50;;;24.11;43.20
71795;BME280;59641;45.188;5.712;2023-08-30T11:57:14;98574.25;;;24.17;41.65
71795;BME280;59641;45.188;5.712;2023-08-30T11:59:40;98589.84;;;24.26;42.23
71795;BME280;59641;45.188;5.712;2023-08-30T12:02:07;98581.75;;;24.29;41.89
71795;BME280;59641;45.188;5.712;2023-08-30T12:04:33;98588.06;;;24.30;42.21
71795;BME280;59641;45.188;5.712;2023-08-30T12:07:04;98580.16;;;24.28;41.87
71795;BME280;59641;45.188;5.712;2023-08-30T12:09:31;98584.81;;;24.28;42.15
71795;BME280;59641;45.188;5.712;2023-08-30T12:12:13;98588.38;;;24.28;41.42
71795;BME280;59641;45.188;5.712;2023-08-30T12:14:39;98587.88;;;24.26;41.42
71795;BME280;59641;45.188;5.712;2023-08-30T12:17:05;98582.41;;;24.26;41.31
71795;BME280;59641;45.188;5.712;2023-08-30T12:19:34;98577.22;;;24.33;41.51
71795;BME280;59641;45.188;5.712;2023-08-30T12:22:07;98570.91;;;24.41;41.40
71795;BME280;59641;45.188;5.712;2023-08-30T12:24:45;98573.28;;;24.52;40.40
71795;BME280;59641;45.188;5.712;2023-08-30T12:27:11;98574.69;;;24.58;40.77
71795;BME280;59641;45.188;5.712;2023-08-30T12:29:37;98579.06;;;24.59;39.43
71795;BME280;59641;45.188;5.712;2023-08-30T12:32:02;98576.31;;;24.59;40.62
71795;BME280;59641;45.188;5.712;2023-08-30T12:34:28;98572.41;;;24.60;40.24
71795;BME280;59641;45.188;5.712;2023-08-30T12:36:54;98571.41;;;24.64;39.65
71795;BME280;59641;45.188;5.712;2023-08-30T12:39:20;98576.59;;;24.66;40.07
71795;BME280;59641;45.188;5.712;2023-08-30T12:41:45;98575.78;;;24.65;39.93
71795;BME280;59641;45.188;5.712;2023-08-30T12:44:10;98578.38;;;24.62;40.44
71795;BME280;59641;45.188;5.712;2023-08-30T12:46:36;98580.16;;;24.58;40.52
71795;BME280;59641;45.188;5.712;2023-08-30T12:49:01;98578.41;;;24.53;40.48
71795;BME280;59641;45.188;5.712;2023-08-30T12:51:26;98582.78;;;24.45;40.29
71795;BME280;59641;45.188;5.712;2023-08-30T12:53:52;98580.25;;;24.40;40.67
71795;BME280;59641;45.188;5.712;2023-08-30T12:56:17;98581.22;;;24.36;40.65
71795;BME280;59641;45.188;5.712;2023-08-30T12:58:43;98586.09;;;24.30;40.37
71795;BME280;59641;45.188;5.712;2023-08-30T13:01:08;98584.34;;;24.26;40.24
71795;BME280;59641;45.188;5.712;2023-08-30T13:03:33;98583.75;;;24.20;40.07